LIEELIEA

Guest
Details From LIEE - Cagliari Elmas
To LIEA - Alghero
Flight Number -
Tags Generated
Created
Modified
Stats Distance 89 nm / 164 km
Max Altitude 0 ft / 0 m
Waypoints 2
Social Downloads 0
Likes 0
Share VATSIM

Download

Looking for another format? Having issues loading an existing format? Contact us
Advertisement - Login to hide

Notes

Generated

Route

LIEE LIEA

ID Type Via Altitude Latitude Longitude Leg Dist Tot Dist Heading (true) Name
O LIEE APT - 0 ft / 0 m 39.26081˚ 9.04347˚ - 0 nm - -
O LIEA APT - 0 ft / 0 m 40.61985˚ 8.28339˚ 88 nm 88 nm 337° / 337° -

Altitude Profile

Advertisement - Login to hide

LIEE

Details ICAO LIEE (CAG)
Name Cagliari Elmas
Region Italy
Timezone Europe/Rome (UTC+1.0)
Stats Elevation 13 ft / 4 m (AMSL)
Location 39.251475° 9.054291°
Runways 1
Magnetic Variation 2.298° E

METAR

LIEE 132220Z 33006KT CAVOK 07/03 Q1023

Decode

TAF

TAF LIEE 131700Z 1318/1418 31010KT 9999 SCT030 BECMG 1404/1406 24013KT

Decode

Departure Runways

ID Width Length Bearing (true) Bearing (mag) Surface Threshold Offset Overrun Length
14 148 ft / 45 m 9,157 ft / 2,791 m 138.08° 135.78° Asphalt 0 ft / 0 m 187 ft / 57 m
32 148 ft / 45 m 9,157 ft / 2,791 m 318.09° 315.79° Asphalt 0 ft / 0 m 0 ft / 0 m

LIEA

Details ICAO LIEA (AHO)
Name ALGHERO
Region Italy
Timezone Europe/Rome (UTC+1.0)
Stats Elevation 87 ft / 27 m (AMSL)
Location 40.632132° 8.290774°
Runways 1
Magnetic Variation 2.194° E

METAR

LIEA 132220Z 24011KT 9999 SCT035 13/06 Q1021

Decode

TAF

TAF AMD LIEA 131941Z 1318/1419 25010KT 9999 SCT030 TEMPO 1319/1324 25018G30KT BECMG 1402/1404 23013KT TEMPO 1412/1418 RA

Decode

Destination Runways

ID Width Length Bearing (true) Bearing (mag) Surface Threshold Offset Overrun Length
02 148 ft / 45 m 9,854 ft / 3,004 m 24.51° 22.32° Asphalt 0 ft / 0 m 0 ft / 0 m
20 148 ft / 45 m 9,854 ft / 3,004 m 204.52° 202.33° Asphalt 0 ft / 0 m 0 ft / 0 m

Approach Navaids

Runway Type Ident Frequency Range Bearing (true) Bearing (mag) Slope Elevation
20 Localiser IALF 110.15 MHz 18 nm / 33 km 204.47° 202.28° - 72 ft / 22 m (AMSL)
20 Glidescope IALF 110.15 MHz 10 nm / 19 km 204.51° 202.32° 3.00° 133 ft / 41 m (AMSL)
20 DME IALF 110.15 MHz 25 nm / 46 km - - - 133 ft / 41 m (AMSL)

Popular Alternatives